Time;durP1;ratioP1;P1;durP2;ratioP2;P2;SDS_P1;SDS_P2;PMS_P1;PMS_P2;Temp;Humidity;BMP_temperature;BMP_pressure;BME280_temperature;BME280_humidity;BME280_pressure;Samples;Min_cycle;Max_cycle;Signal;HPM_P1;HPM_P2
2022/07/28 00:02:03;;;;;;;15.00;12.23;;;614.60;2432.00;;;;;;4953953;29;20462;-81
2022/07/28 00:04:29;;;;;;;16.33;11.38;;;614.70;2432.00;;;;;;4952453;29;20389;-80
2022/07/28 00:06:55;;;;;;;13.63;11.60;;;614.60;2432.00;;;;;;4952411;29;20031;-81
2022/07/28 00:09:21;;;;;;;13.35;11.82;;;614.50;2432.00;;;;;;4951331;28;20386;-81
2022/07/28 00:11:47;;;;;;;12.50;11.20;;;614.60;2432.00;;;;;;4936560;29;20063;-80
2022/07/28 00:14:12;;;;;;;13.10;11.55;;;614.60;2432.00;;;;;;4951415;29;20058;-81
2022/07/28 00:16:38;;;;;;;15.05;11.57;;;614.60;2432.00;;;;;;4936542;29;20031;-81
2022/07/28 00:19:04;;;;;;;15.68;12.90;;;614.60;2432.00;;;;;;4951482;29;20035;-80
2022/07/28 00:21:30;;;;;;;13.65;11.30;;;614.70;2432.00;;;;;;4950366;29;20394;-80
2022/07/28 00:23:56;;;;;;;14.50;12.95;;;614.60;2432.00;;;;;;4950195;29;20027;-81
2022/07/28 00:26:22;;;;;;;13.63;12.13;;;614.60;2432.00;;;;;;4949665;29;20028;-81
2022/07/28 00:28:48;;;;;;;15.93;11.95;;;614.50;2432.00;;;;;;4949411;29;20469;-81
2022/07/28 00:31:14;;;;;;;16.67;13.13;;;614.50;2432.00;;;;;;4950030;29;20233;-81
2022/07/28 00:33:40;;;;;;;16.17;11.65;;;614.50;2432.00;;;;;;4936509;29;20106;-80
2022/07/28 00:36:07;;;;;;;14.63;12.23;;;614.60;2432.00;;;;;;4950706;29;20036;-81
2022/07/28 00:38:34;;;;;;;13.02;11.55;;;614.50;2432.00;;;;;;4951140;29;20034;-81
2022/07/28 00:41:12;;;;;;;13.13;11.57;;;614.50;2432.00;;;;;;4951319;29;20027;-80
2022/07/28 00:43:40;;;;;;;13.48;12.07;;;589.70;2432.00;;;;;;4950377;29;20384;-81
2022/07/28 00:46:07;;;;;;;14.23;12.48;;;614.40;2432.00;;;;;;4950797;29;20047;-81
2022/07/28 00:48:36;;;;;;;13.55;12.15;;;589.60;2432.00;;;;;;4951225;29;20079;-81
2022/07/28 00:51:02;;;;;;;12.48;11.18;;;589.70;2432.00;;;;;;4950844;29;20460;-81
2022/07/28 00:53:28;;;;;;;13.38;11.98;;;589.70;2432.00;;;;;;4936360;29;20111;-81
2022/07/28 00:55:55;;;;;;;13.25;11.95;;;589.70;2432.00;;;;;;4950249;29;20063;-80
2022/07/28 00:58:20;;;;;;;13.60;12.30;;;589.70;2432.00;;;;;;4949665;29;20049;-81
2022/07/28 01:00:46;;;;;;;13.25;11.80;;;589.60;2432.00;;;;;;4950983;29;20477;-80
2022/07/28 01:03:12;;;;;;;13.57;12.15;;;589.70;2432.00;;;;;;4934639;29;20030;-80
2022/07/28 01:05:59;;;;;;;13.35;11.95;;;589.60;2432.00;;;;;;4934646;29;20473;-80
2022/07/28 01:09:03;;;;;;;15.65;11.43;;;589.60;2432.00;;;;;;4936657;29;20034;-81
2022/07/28 01:11:46;;;;;;;13.57;11.55;;;589.40;2432.00;;;;;;4914569;29;20032;-79
2022/07/28 01:14:37;;;;;;;14.02;12.65;;;589.40;2432.00;;;;;;4930901;29;20044;-81
2022/07/28 01:17:15;;;;;;;16.85;14.27;;;589.30;2432.00;;;;;;4950989;29;20032;-80
2022/07/28 01:20:04;;;;;;;16.20;12.63;;;589.00;2432.00;;;;;;4949536;29;20118;-81
2022/07/28 01:22:39;;;;;;;14.32;12.88;;;589.00;2432.00;;;;;;4938023;29;20035;-80
2022/07/28 01:25:32;;;;;;;14.95;11.43;;;589.10;2432.00;;;;;;4954162;29;20470;-81
2022/07/28 01:28:10;;;;;;;15.73;12.32;;;589.20;2432.00;;;;;;4953890;29;20524;-81
2022/07/28 01:30:42;;;;;;;14.45;11.77;;;589.20;2432.00;;;;;;4939623;29;20020;-80
2022/07/28 01:33:17;;;;;;;14.23;12.65;;;589.10;2432.00;;;;;;4953941;29;20039;-81
2022/07/28 01:36:01;;;;;;;16.23;13.20;;;589.20;2432.00;;;;;;4954181;29;20028;-81
2022/07/28 01:38:30;;;;;;;14.80;13.02;;;588.90;2432.00;;;;;;4953877;29;20149;-81
2022/07/28 01:40:57;;;;;;;16.58;12.27;;;589.00;2432.00;;;;;;4954173;29;20027;-82
2022/07/28 01:43:25;;;;;;;14.20;12.75;;;589.00;2432.00;;;;;;4954172;29;20031;-81
2022/07/28 01:45:55;;;;;;;14.90;13.27;;;588.90;2432.00;;;;;;4953721;29;20508;-81
2022/07/28 01:48:22;;;;;;;16.00;13.45;;;588.80;2432.00;;;;;;4938162;29;20038;-80
2022/07/28 01:50:50;;;;;;;19.45;13.60;;;564.10;2432.00;;;;;;4953938;29;20028;-81
2022/07/28 01:53:17;;;;;;;13.40;12.00;;;564.00;2432.00;;;;;;4953453;29;20031;-81
2022/07/28 01:55:45;;;;;;;14.73;12.70;;;564.10;2432.00;;;;;;4953593;29;20486;-82
2022/07/28 01:58:14;;;;;;;16.08;13.93;;;588.80;2432.00;;;;;;4954206;29;20034;-82
2022/07/28 02:00:41;;;;;;;14.88;12.85;;;564.10;2432.00;;;;;;4953630;29;20495;-82
2022/07/28 02:03:09;;;;;;;15.48;12.40;;;564.10;2432.00;;;;;;4952486;29;20110;-81
2022/07/28 02:05:37;;;;;;;16.27;13.23;;;564.10;2432.00;;;;;;4953798;29;20042;-81
2022/07/28 02:08:04;;;;;;;18.15;13.50;;;564.10;2432.00;;;;;;4953508;29;20023;-81
2022/07/28 02:10:32;;;;;;;15.45;13.85;;;564.10;2432.00;;;;;;4953816;29;20043;-82
2022/07/28 02:13:00;;;;;;;15.27;12.43;;;563.90;2432.00;;;;;;4953565;29;20031;-82
2022/07/28 02:15:28;;;;;;;17.80;13.15;;;564.10;2432.00;;;;;;4952715;29;20067;-81
2022/07/28 02:17:55;;;;;;;15.77;12.90;;;588.80;2432.00;;;;;;4953611;29;20087;-81
2022/07/28 02:20:21;;;;;;;17.08;13.27;;;588.80;2432.00;;;;;;4938967;29;20028;-82
2022/07/28 02:22:49;;;;;;;17.02;13.45;;;588.80;2432.00;;;;;;4951779;29;20712;-82
2022/07/28 02:25:15;;;;;;;14.70;12.07;;;588.80;2432.00;;;;;;4938360;29;20031;-81
2022/07/28 02:27:41;;;;;;;14.85;11.93;;;588.90;2432.00;;;;;;4952949;29;20034;-82
2022/07/28 02:30:14;;;;;;;19.25;12.00;;;588.90;2432.00;;;;;;4937394;29;20126;-81
2022/07/28 02:32:53;;;;;;;18.33;13.05;;;588.90;2432.00;;;;;;4952247;28;20055;-81
2022/07/28 02:35:38;;;;;;;18.20;13.35;;;588.90;2432.00;;;;;;4937281;29;20595;-82
2022/07/28 02:38:12;;;;;;;16.27;13.00;;;564.10;2432.00;;;;;;4952447;29;20088;-82
2022/07/28 02:40:41;;;;;;;18.05;13.45;;;564.10;2432.00;;;;;;4953330;29;20032;-81
2022/07/28 02:43:19;;;;;;;22.23;13.77;;;564.10;2432.00;;;;;;4952925;29;20478;-82
2022/07/28 02:45:50;;;;;;;13.63;12.05;;;563.80;2432.00;;;;;;4952997;29;20490;-81
2022/07/28 02:48:20;;;;;;;15.30;12.25;;;563.60;2432.00;;;;;;4952826;29;20031;-81
2022/07/28 02:50:47;;;;;;;16.25;13.10;;;563.80;2432.00;;;;;;4952851;29;20441;-81
2022/07/28 02:53:15;;;;;;;16.88;12.30;;;563.90;2432.00;;;;;;4953193;29;20123;-81
2022/07/28 02:55:42;;;;;;;14.82;11.10;;;563.90;2432.00;;;;;;4952712;29;20527;-82
2022/07/28 02:58:10;;;;;;;14.48;12.48;;;563.90;2432.00;;;;;;4953227;29;20067;-82
2022/07/28 03:00:37;;;;;;;14.50;12.45;;;563.60;2432.00;;;;;;4952864;29;20032;-81
2022/07/28 03:03:04;;;;;;;17.60;12.20;;;563.60;2432.00;;;;;;4952626;29;20473;-82
2022/07/28 03:05:30;;;;;;;15.45;12.73;;;563.70;2432.00;;;;;;4952939;29;20474;-81
2022/07/28 03:07:58;;;;;;;16.67;12.07;;;563.80;2432.00;;;;;;4952817;29;20097;-82
2022/07/28 03:10:25;;;;;;;16.38;13.10;;;563.80;2432.00;;;;;;4952342;29;20152;-81
2022/07/28 03:12:52;;;;;;;14.95;11.82;;;563.60;2432.00;;;;;;4952373;29;20537;-81
2022/07/28 03:15:18;;;;;;;15.38;12.25;;;563.50;2432.00;;;;;;4951551;29;20038;-81
2022/07/28 03:17:44;;;;;;;16.90;13.27;;;563.60;2432.00;;;;;;4952422;29;20036;-81
2022/07/28 03:20:11;;;;;;;14.55;12.35;;;563.60;2432.00;;;;;;4952670;29;20031;-82
2022/07/28 03:22:37;;;;;;;14.75;12.52;;;563.20;2432.00;;;;;;4952443;29;20028;-81
2022/07/28 03:25:15;;;;;;;14.38;12.88;;;563.60;2432.00;;;;;;4952326;29;20035;-81
2022/07/28 03:27:45;;;;;;;19.52;13.77;;;563.40;2432.00;;;;;;4952488;29;20024;-81
2022/07/28 03:30:12;;;;;;;13.23;11.80;;;;;;;;;;4952370;29;20496;-81
2022/07/28 03:32:41;;;;;;;15.43;12.38;;;;;;;;;;4936236;29;20028;-81
2022/07/28 03:35:07;;;;;;;18.73;12.90;;;;;;;;;;4935545;29;20070;-81
2022/07/28 03:37:37;;;;;;;17.35;12.95;;;;;;;;;;4936168;29;20032;-82
2022/07/28 03:40:04;;;;;;;13.75;12.18;;;;;;;;;;4935678;29;20020;-82
2022/07/28 03:42:32;;;;;;;19.65;15.30;;;;;;;;;;4934897;29;20024;-81
2022/07/28 03:45:00;;;;;;;16.08;14.23;;;;;;;;;;4934516;29;20079;-82
2022/07/28 03:47:26;;;;;;;19.20;13.48;;;;;;;;;;4935876;29;20058;-81
2022/07/28 03:49:52;;;;;;;16.30;13.13;;;;;;;;;;4935369;29;20028;-81
2022/07/28 03:52:18;;;;;;;16.30;12.93;;;;;;;;;;4934944;29;20470;-81
2022/07/28 03:54:45;;;;;;;17.60;12.73;;;;;;;;;;4935492;29;20035;-81
2022/07/28 03:57:11;;;;;;;15.35;12.90;;;;;;;;;;4935819;29;20028;-81
2022/07/28 03:59:37;;;;;;;16.10;12.65;;;;;;;;;;4935231;29;20027;-79
2022/07/28 04:02:03;;;;;;;17.20;13.75;;;;;;;;;;4935668;29;20031;-80
2022/07/28 04:04:29;;;;;;;18.63;14.73;;;;;;;;;;4935038;29;20031;-81
2022/07/28 04:06:56;;;;;;;16.75;12.88;;;;;;;;;;4924531;29;20030;-80
2022/07/28 04:09:22;;;;;;;18.25;13.32;;;;;;;;;;4919909;29;20020;-81
2022/07/28 04:11:48;;;;;;;18.90;13.23;;;563.70;2432.00;;;;;;4920024;29;20370;-81
2022/07/28 04:14:16;;;;;;;17.52;12.85;;;;;;;;;;4935194;29;20034;-82
2022/07/28 04:16:42;;;;;;;17.58;13.75;;;563.70;2432.00;;;;;;4919881;29;20055;-81
2022/07/28 04:19:08;;;;;;;15.10;13.40;;;563.50;2432.00;;;;;;4935448;29;20497;-82
2022/07/28 04:21:33;;;;;;;20.63;13.68;;;563.50;2432.00;;;;;;4935339;29;20035;-81
2022/07/28 04:23:59;;;;;;;17.77;13.13;;;563.30;2432.00;;;;;;4960177;28;20011;-81
2022/07/28 04:26:25;;;;;;;18.45;14.98;;;;;;;;;;4942734;29;20035;-82
2022/07/28 04:28:51;;;;;;;17.23;13.85;;;;;;;;;;4921152;29;20024;-82
2022/07/28 04:31:18;;;;;;;21.58;14.35;;;;;;;;;;4921869;29;20028;-81
2022/07/28 04:33:45;;;;;;;14.88;12.90;;;;;;;;;;4922120;29;20046;-82
2022/07/28 04:36:11;;;;;;;18.67;13.82;;;;;;;;;;4919900;29;20478;-81
2022/07/28 04:38:38;;;;;;;15.55;13.93;;;;;;;;;;4919448;29;20118;-81
2022/07/28 04:41:04;;;;;;;14.75;12.32;;;;;;;;;;4918962;29;20027;-82
2022/07/28 04:43:30;;;;;;;14.70;12.80;;;;;;;;;;4919349;29;20498;-82
2022/07/28 04:45:56;;;;;;;20.23;13.25;;;;;;;;;;4918194;29;20508;-81
2022/07/28 04:48:23;;;;;;;19.80;13.30;;;;;;;;;;4918758;29;20016;-81
2022/07/28 04:50:51;;;;;;;32.05;15.07;;;;;;;;;;4918953;29;20042;-81
2022/07/28 04:53:17;;;;;;;18.33;14.85;;;;;;;;;;4919475;29;20523;-81
2022/07/28 04:55:44;;;;;;;18.80;13.68;;;;;;;;;;4920077;29;20389;-82
2022/07/28 04:58:11;;;;;;;16.38;12.75;;;;;;;;;;4923074;29;20358;-81
2022/07/28 05:00:37;;;;;;;14.85;12.68;;;;;;;;;;4923232;29;20032;-81
2022/07/28 05:03:04;;;;;;;17.10;12.75;;;;;;;;;;4922952;29;20055;-81
2022/07/28 05:05:30;;;;;;;16.30;14.55;;;;;;;;;;4923193;29;20466;-82
2022/07/28 05:07:56;;;;;;;17.40;13.15;;;;;;;;;;4923209;29;20024;-83
2022/07/28 05:10:22;;;;;;;19.92;14.82;;;;;;;;;;4922905;29;20027;-80
2022/07/28 05:12:49;;;;;;;20.85;16.25;;;;;;;;;;4923210;29;20047;-81
2022/07/28 05:15:15;;;;;;;18.63;14.45;;;;;;;;;;4922235;29;20031;-81
2022/07/28 05:17:41;;;;;;;18.45;14.93;;;;;;;;;;4921926;29;20095;-82
2022/07/28 05:20:07;;;;;;;22.58;15.50;;;;;;;;;;4922778;29;20119;-81
2022/07/28 05:22:41;;;;;;;19.30;14.85;;;;;;;;;;4922384;29;20024;-82
2022/07/28 05:25:12;;;;;;;19.83;14.38;;;;;;;;;;4922867;29;20031;-83
2022/07/28 05:27:38;;;;;;;20.60;15.10;;;;;;;;;;4922813;29;20051;-82
2022/07/28 05:30:05;;;;;;;19.38;14.60;;;;;;;;;;4922416;29;20058;-82
2022/07/28 05:32:31;;;;;;;20.25;13.85;;;;;;;;;;4922792;29;20028;-82
2022/07/28 05:34:58;;;;;;;17.17;13.55;;;;;;;;;;4922560;29;20051;-82
2022/07/28 05:37:24;;;;;;;18.77;13.88;;;564.10;2432.00;;;;;;4922413;29;20058;-82
2022/07/28 05:39:50;;;;;;;18.60;14.32;;;563.90;2432.00;;;;;;4922523;29;20545;-82
2022/07/28 05:42:15;;;;;;;17.75;13.23;;;563.90;2432.00;;;;;;4921812;29;20030;-82
2022/07/28 05:44:41;;;;;;;18.75;14.02;;;564.10;2432.00;;;;;;4922008;29;20485;-82
2022/07/28 05:47:07;;;;;;;20.95;13.02;;;588.80;2432.00;;;;;;4922238;29;20032;-82
2022/07/28 05:49:33;;;;;;;16.80;13.15;;;589.00;2432.00;;;;;;4921177;29;20031;-81
2022/07/28 05:51:58;;;;;;;16.25;12.43;;;589.00;2432.00;;;;;;4920483;29;20027;-81
2022/07/28 05:54:24;;;;;;;19.50;13.40;;;589.10;2432.00;;;;;;4922280;29;20036;-82
2022/07/28 05:56:50;;;;;;;20.50;13.52;;;589.00;2432.00;;;;;;4922255;29;20043;-82
2022/07/28 05:59:16;;;;;;;23.08;14.52;;;589.00;2432.00;;;;;;4937903;29;20429;-81
2022/07/28 06:01:42;;;;;;;16.98;14.00;;;588.90;2432.00;;;;;;4922131;29;20035;-82
2022/07/28 06:04:08;;;;;;;17.40;13.10;;;589.10;2432.00;;;;;;4921519;29;20028;-82
2022/07/28 06:06:33;;;;;;;17.48;13.93;;;589.20;2432.00;;;;;;4921573;29;20032;-82
2022/07/28 06:08:59;;;;;;;18.85;15.52;;;589.00;2432.00;;;;;;4921575;29;20023;-82
2022/07/28 06:11:25;;;;;;;16.13;14.23;;;588.80;2432.00;;;;;;4921899;29;20028;-82
2022/07/28 06:13:51;;;;;;;15.52;13.32;;;588.90;2432.00;;;;;;4921960;29;20031;-83
2022/07/28 06:16:19;;;;;;;17.88;13.90;;;588.90;2432.00;;;;;;4921827;29;20047;-83
2022/07/28 06:18:45;;;;;;;18.20;14.95;;;588.90;2432.00;;;;;;4921612;29;20034;-83
2022/07/28 06:21:11;;;;;;;17.55;15.65;;;564.10;2432.00;;;;;;4920706;29;20114;-81
2022/07/28 06:23:36;;;;;;;21.02;13.48;;;564.10;2432.00;;;;;;4921824;29;20099;-82
2022/07/28 06:26:02;;;;;;;17.92;14.40;;;588.80;2432.00;;;;;;4938398;29;20079;-84
2022/07/28 06:28:28;;;;;;;19.00;14.35;;;588.80;2432.00;;;;;;4921822;29;20024;-82
2022/07/28 06:30:54;;;;;;;16.60;14.05;;;564.10;2432.00;;;;;;4921532;29;20389;-83
2022/07/28 06:33:20;;;;;;;18.83;13.30;;;588.80;2432.00;;;;;;4920932;29;20032;-83
2022/07/28 06:35:45;;;;;;;15.60;13.93;;;588.80;2432.00;;;;;;4921664;29;20036;-84
2022/07/28 06:38:11;;;;;;;15.10;13.38;;;564.10;2432.00;;;;;;4921696;29;20035;-83
2022/07/28 06:40:37;;;;;;;18.60;12.93;;;564.00;2432.00;;;;;;4920540;29;20039;-82
2022/07/28 06:43:03;;;;;;;13.63;11.93;;;564.10;2432.00;;;;;;4921415;29;20028;-83
2022/07/28 06:45:29;;;;;;;13.18;11.88;;;588.80;2432.00;;;;;;4921289;29;20118;-83
2022/07/28 06:47:55;;;;;;;14.10;11.82;;;588.90;2432.00;;;;;;4921318;29;20034;-79
2022/07/28 06:50:21;;;;;;;15.60;12.10;;;589.00;2432.00;;;;;;4921307;29;20027;-82
2022/07/28 06:52:47;;;;;;;19.27;17.20;;;589.10;2432.00;;;;;;4921347;29;20037;-82
2022/07/28 06:55:14;;;;;;;16.30;14.43;;;589.20;2432.00;;;;;;4920575;29;20381;-81
2022/07/28 06:57:42;;;;;;;16.58;13.60;;;588.80;2432.00;;;;;;4937850;29;20458;-82
2022/07/28 07:00:11;;;;;;;16.60;14.43;;;588.80;2432.00;;;;;;4921168;29;20035;-83
2022/07/28 07:02:41;;;;;;;17.40;15.45;;;564.00;2432.00;;;;;;4920260;29;20032;-82
2022/07/28 07:05:08;;;;;;;16.92;14.73;;;564.00;2432.00;;;;;;4921228;29;20036;-82
2022/07/28 07:07:35;;;;;;;16.63;13.63;;;564.10;2432.00;;;;;;4920833;29;20027;-83
2022/07/28 07:10:03;;;;;;;17.13;14.32;;;589.00;2432.00;;;;;;4920807;29;20095;-83
2022/07/28 07:12:31;;;;;;;20.60;15.27;;;589.20;2432.00;;;;;;4920943;29;20481;-83
2022/07/28 07:14:56;;;;;;;16.95;14.82;;;589.20;2432.00;;;;;;4920505;29;20036;-83
2022/07/28 07:17:22;;;;;;;18.63;14.00;;;;;;;;;;4920405;29;20492;-83
2022/07/28 07:19:49;;;;;;;21.60;14.88;;;;;;;;;;4936046;29;20031;-83
2022/07/28 07:22:15;;;;;;;16.52;14.40;;;;;;;;;;4936182;29;20091;-83
2022/07/28 07:24:41;;;;;;;19.65;15.68;;;;;;;;;;4936733;29;20422;-83
2022/07/28 07:27:08;;;;;;;17.98;15.73;;;;;;;;;;4936618;29;20035;-82
2022/07/28 07:29:34;;;;;;;19.27;15.95;;;;;;;;;;4936456;29;20362;-83
2022/07/28 07:32:00;;;;;;;20.33;15.98;;;;;;;;;;4936485;29;20024;-83
2022/07/28 07:34:27;;;;;;;19.63;16.00;;;;;;;;;;4935803;29;20055;-82
2022/07/28 07:36:53;;;;;;;20.75;15.25;;;;;;;;;;4936162;29;20470;-84
2022/07/28 07:39:28;;;;;;;21.83;15.95;;;;;;;;;;4936491;29;20382;-83
2022/07/28 07:41:54;;;;;;;26.13;17.20;;;;;;;;;;4936585;29;20031;-83
2022/07/28 07:44:20;;;;;;;19.70;14.88;;;;;;;;;;4936116;29;20027;-83
2022/07/28 07:46:46;;;;;;;19.58;14.48;;;614.50;2432.00;;;;;;4936379;29;20039;-82
2022/07/28 07:49:12;;;;;;;22.45;17.70;;;614.40;2432.00;;;;;;4920236;29;20028;-82
2022/07/28 07:51:38;;;;;;;24.30;18.15;;;614.60;2432.00;;;;;;4919680;29;20481;-83
2022/07/28 07:54:04;;;;;;;20.80;18.58;;;614.70;2432.00;;;;;;4920609;29;20474;-85
2022/07/28 07:56:29;;;;;;;19.88;17.55;;;614.70;2432.00;;;;;;4920291;29;20031;-82
2022/07/28 07:58:56;;;;;;;19.27;17.15;;;614.60;2432.00;;;;;;4919715;29;20031;-82
2022/07/28 08:01:22;;;;;;;18.65;16.70;;;614.70;2432.00;;;;;;4935996;29;20035;-82
2022/07/28 08:03:48;;;;;;;17.48;15.02;;;614.70;2432.00;;;;;;4935187;29;20466;-81
2022/07/28 08:06:14;;;;;;;16.52;13.73;;;614.80;2432.00;;;;;;4935675;29;20034;-84
2022/07/28 08:08:41;;;;;;;14.15;12.40;;;614.90;2432.00;;;;;;4936162;29;20028;-83
2022/07/28 08:11:07;;;;;;;17.77;12.95;;;615.20;2432.00;;;;;;4935584;29;20035;-82
2022/07/28 08:13:32;;;;;;;17.63;12.73;;;640.20;2432.00;;;;;;4936024;29;20028;-83
2022/07/28 08:15:58;;;;;;;17.05;13.07;;;640.10;2432.00;;;;;;4935937;29;20046;-82
2022/07/28 08:18:24;;;;;;;16.50;12.88;;;;;;;;;;4935524;29;20024;-82
2022/07/28 08:20:51;;;;;;;15.82;10.70;;;;;;;;;;4919893;29;20394;-83
2022/07/28 08:32:56;;;;;;;11.65;9.18;;;;;;;;;;4937486;29;20035;-87
2022/07/28 08:47:02;;;;;;;10.57;7.90;;;;;;;;;;4975313;28;20122;-83
2022/07/28 08:58:46;;;;;;;10.20;8.15;;;;;;;;;;4979776;28;20138;-85
2022/07/28 09:01:13;;;;;;;9.15;8.20;;;;;;;;;;4965982;28;20373;-85
2022/07/28 09:03:39;;;;;;;10.95;8.85;;;;;;;;;;4977581;28;20058;-85
2022/07/28 09:06:10;;;;;;;9.65;8.27;;;;;;;;;;4989638;28;20034;-85
2022/07/28 09:08:37;;;;;;;9.50;8.50;;;;;;;;;;4988365;28;20014;-86
2022/07/28 09:11:05;;;;;;;12.40;10.95;;;;;;;;;;5006200;28;20026;-83
2022/07/28 09:13:34;;;;;;;11.63;9.82;;;;;;;;;;4982562;28;20118;-84
2022/07/28 09:16:01;;;;;;;12.30;9.07;;;;;;;;;;4982025;28;20393;-84
2022/07/28 09:18:27;;;;;;;10.93;8.52;;;742.60;2432.00;;;;;;4982618;28;20098;-84
2022/07/28 09:20:53;;;;;;;13.30;8.70;;;742.50;2432.00;;;;;;4961485;28;20031;-84
2022/07/28 09:23:21;;;;;;;9.43;8.43;;;742.70;2432.00;;;;;;4957832;28;20425;-85
2022/07/28 09:25:47;;;;;;;9.77;8.77;;;742.70;2432.00;;;;;;4958444;28;20049;-85
2022/07/28 09:28:18;;;;;;;9.68;7.97;;;742.80;2432.00;;;;;;4958305;28;20031;-85
2022/07/28 09:30:48;;;;;;;10.93;8.43;;;742.60;2432.00;;;;;;4957562;28;20027;-84
2022/07/28 09:33:22;;;;;;;9.57;8.63;;;742.80;2432.00;;;;;;4958475;28;20117;-84
2022/07/28 09:35:52;;;;;;;9.05;8.15;;;;;;;;;;4958387;28;20031;-85
2022/07/28 09:38:31;;;;;;;13.00;8.35;;;743.30;2432.00;;;;;;4964261;28;20049;-85
2022/07/28 09:41:03;;;;;;;10.95;8.88;;;743.30;2406.40;;;;;;4974518;28;20030;-85
2022/07/28 09:43:42;;;;;;;11.85;8.15;;;743.20;2432.00;;;;;;4968395;28;20066;-84
2022/07/28 09:46:14;;;;;;;9.57;8.57;;;743.10;2432.00;;;;;;4969784;28;20041;-84
2022/07/28 09:49:15;;;;;;;9.20;8.40;;;768.00;2432.00;;;;;;4961215;28;20030;-85
2022/07/28 09:52:11;;;;;;;10.48;8.13;;;768.20;2355.20;;;;;;4988130;28;20027;-84
2022/07/28 09:55:11;;;;;;;10.63;7.80;;;768.40;2329.60;;;;;;4944677;28;20043;-85
2022/07/28 09:57:41;;;;;;;10.00;7.85;;;768.60;2304.00;;;;;;4960746;28;20035;-84
2022/07/28 10:00:23;;;;;;;9.13;8.18;;;768.60;2304.00;;;;;;4964012;28;20482;-84
2022/07/28 10:02:49;;;;;;;8.73;7.82;;;793.60;2329.60;;;;;;4988937;28;20390;-84
2022/07/28 10:05:15;;;;;;;12.88;8.35;;;768.70;2278.40;;;;;;4971354;28;20118;-84
2022/07/28 10:07:49;;;;;;;9.93;7.93;;;793.70;2278.40;;;;;;4965284;28;20026;-84
2022/07/28 10:10:20;;;;;;;10.02;8.18;;;793.90;2304.00;;;;;;4960521;28;20109;-84
2022/07/28 10:12:46;;;;;;;10.10;8.85;;;794.20;2278.40;;;;;;4960905;28;20023;-84
2022/07/28 10:18:10;;;;;;;10.20;7.90;;;794.40;2201.60;;;;;;4977875;28;20030;-84
2022/07/28 10:20:37;;;;;;;11.48;8.15;;;794.00;2227.20;;;;;;4960334;28;20027;-83
2022/07/28 10:23:04;;;;;;;11.35;8.27;;;794.00;2227.20;;;;;;4960102;28;20435;-80
2022/07/28 10:25:34;;;;;;;9.35;8.40;;;794.30;2201.60;;;;;;4960238;28;20035;-85
2022/07/28 10:30:48;;;;;;;8.77;7.88;;;794.50;2227.20;;;;;;4977303;28;20441;-83
2022/07/28 10:33:15;;;;;;;9.35;7.45;;;794.50;2150.40;;;;;;4960406;28;20027;-83
2022/07/28 10:35:45;;;;;;;9.50;7.60;;;819.30;2150.40;;;;;;4959823;28;20027;-83
2022/07/28 10:38:15;;;;;;;9.55;8.07;;;819.20;2150.40;;;;;;4959935;28;20086;-82
2022/07/28 10:40:51;;;;;;;9.50;7.97;;;819.50;2176.00;;;;;;4960004;28;20019;-82
2022/07/28 10:43:17;;;;;;;11.05;7.78;;;819.80;2176.00;;;;;;4959146;28;20039;-82
2022/07/28 10:45:43;;;;;;;8.18;7.30;;;844.80;2150.40;;;;;;4959076;28;20042;-82
2022/07/28 10:48:09;;;;;;;7.82;7.03;;;819.80;2099.20;;;;;;4959516;28;20054;-83
2022/07/28 10:50:36;;;;;;;8.02;7.22;;;819.70;2073.60;;;;;;4945017;29;20054;-82
2022/07/28 10:53:02;;;;;;;9.73;7.20;;;819.70;2048.00;;;;;;4939460;29;20128;-86
2022/07/28 10:56:25;;;;;;;8.27;7.43;;;819.80;2073.60;;;;;;4940064;29;20046;-83
2022/07/28 10:59:25;;;;;;;7.72;6.90;;;819.80;2048.00;;;;;;4864728;29;20152;-85
2022/07/28 11:01:51;;;;;;;9.68;7.00;;;819.80;2022.40;;;;;;4940434;29;20024;-83
2022/07/28 11:05:05;;;;;;;7.25;6.18;;;820.10;2022.40;;;;;;4940770;29;20086;-83
2022/07/28 11:20:59;;;;;;;8.87;7.33;;;845.30;1971.20;;;;;;4936056;29;20043;-83
2022/07/28 11:23:48;;;;;;;;;;;845.70;1920.00;;;;;;4937222;29;20052;-83
2022/07/28 11:34:07;;;;;;;7.20;6.50;;;870.50;1843.20;;;;;;4915093;29;20524;-82
2022/07/28 11:37:10;;;;;;;7.78;6.28;;;845.70;1868.80;;;;;;4931551;29;20048;-82
2022/07/28 12:30:42;;;;;;;7.07;5.18;;;922.50;1664.00;;;;;;5424099;23;20056;-84
2022/07/28 12:40:29;;;;;;;10.32;5.43;;;947.40;1664.00;;;;;;5013701;28;20068;-84
2022/07/28 14:10:06;;;;;;;6.70;6.00;;;947.30;1587.20;;;;;;6193226;22;1527043;-86
2022/07/28 14:12:35;;;;;;;8.02;7.22;;;947.80;1561.60;;;;;;6280072;22;20016;-84
2022/07/28 14:15:01;;;;;;;6.93;6.25;;;948.10;1561.60;;;;;;6254567;23;20077;-84
2022/07/28 14:17:30;;;;;;;12.68;8.60;;;948.00;1561.60;;;;;;6254116;23;20425;-85
2022/07/28 14:19:56;;;;;;;56.63;51.22;;;948.10;1561.60;;;;;;6254634;23;20015;-86
2022/07/28 14:22:22;;;;;;;13.05;11.77;;;972.80;1587.20;;;;;;6254405;23;20004;-86
2022/07/28 14:24:48;;;;;;;6.55;5.85;;;948.10;1561.60;;;;;;6254178;23;19996;-82
2022/07/28 14:27:14;;;;;;;7.22;6.40;;;947.70;1561.60;;;;;;6254138;23;20011;-85
2022/07/28 14:29:42;;;;;;;13.95;11.73;;;947.70;1561.60;;;;;;6254719;23;20090;-88
2022/07/28 14:32:07;;;;;;;9.15;7.07;;;947.80;1561.60;;;;;;6254738;23;20133;-84
2022/07/28 14:34:34;;;;;;;13.07;7.18;;;972.80;1587.20;;;;;;6254254;23;20000;-85
2022/07/28 14:37:00;;;;;;;9.98;6.88;;;947.70;1561.60;;;;;;6253757;23;20059;-86
2022/07/28 14:39:26;;;;;;;7.13;5.90;;;947.60;1561.60;;;;;;6254098;23;20015;-85
2022/07/28 14:45:21;;;;;;;22.35;20.23;;;948.10;1561.60;;;;;;6254705;23;20041;-85
2022/07/28 14:47:47;;;;;;;13.05;7.30;;;972.90;1561.60;;;;;;6253817;23;20010;-86
2022/07/28 14:50:13;;;;;;;8.18;6.70;;;973.00;1561.60;;;;;;6253748;23;20008;-84
2022/07/28 14:52:39;;;;;;;6.43;5.55;;;972.80;1561.60;;;;;;6254385;23;20008;-84
2022/07/28 14:55:05;;;;;;;9.52;6.38;;;947.20;1587.20;;;;;;6253200;23;20421;-84
2022/07/28 14:57:32;;;;;;;7.63;6.43;;;922.00;1638.40;;;;;;6253296;23;20118;-85
2022/07/28 14:59:58;;;;;;;9.50;6.68;;;896.90;1638.40;;;;;;6253833;23;20000;-81
2022/07/28 15:02:24;;;;;;;6.82;6.13;;;896.50;1638.40;;;;;;6255145;23;20008;-82
2022/07/28 15:04:50;;;;;;;8.57;7.13;;;896.20;1664.00;;;;;;6254756;23;20077;-85
2022/07/28 15:07:16;;;;;;;8.55;6.78;;;871.30;1664.00;;;;;;6272170;22;20089;-82
2022/07/28 15:09:42;;;;;;;15.65;7.20;;;871.30;1664.00;;;;;;6273201;22;20027;-82
2022/07/28 15:12:08;;;;;;;7.93;6.85;;;896.90;1638.40;;;;;;6251623;23;20007;-83
2022/07/28 15:14:33;;;;;;;7.72;6.22;;;921.90;1638.40;;;;;;6259864;23;20011;-82
2022/07/28 15:16:59;;;;;;;7.25;6.55;;;922.10;1612.80;;;;;;6246571;23;20431;-85
2022/07/28 15:19:25;;;;;;;8.05;6.13;;;922.30;1612.80;;;;;;6247078;23;20095;-82
2022/07/28 15:21:51;;;;;;;7.18;5.97;;;922.40;1612.80;;;;;;6246355;23;20441;-82
2022/07/28 15:24:18;;;;;;;9.43;6.10;;;922.40;1612.80;;;;;;6246815;23;20413;-83
2022/07/28 15:26:43;;;;;;;10.25;6.55;;;922.50;1612.80;;;;;;6246295;23;20001;-84
2022/07/28 15:29:09;;;;;;;8.65;6.18;;;922.50;1612.80;;;;;;6245913;23;20314;-81
2022/07/28 15:31:36;;;;;;;8.05;6.82;;;922.50;1612.80;;;;;;6245990;23;20000;-82
2022/07/28 15:34:02;;;;;;;9.32;6.75;;;922.40;1612.80;;;;;;6246383;23;20008;-82
2022/07/28 15:36:29;;;;;;;9.18;6.75;;;922.40;1612.80;;;;;;6246959;23;20034;-82
2022/07/28 15:38:54;;;;;;;7.40;6.22;;;922.30;1638.40;;;;;;6245577;23;20004;-82
2022/07/28 15:41:20;;;;;;;10.20;8.02;;;922.50;1612.80;;;;;;6246333;23;20000;-82
2022/07/28 15:43:47;;;;;;;9.00;7.10;;;922.20;1638.40;;;;;;6246634;23;20004;-81
2022/07/28 15:46:13;;;;;;;8.02;6.85;;;922.00;1638.40;;;;;;6246518;23;20004;-81
2022/07/28 15:48:41;;;;;;;9.10;6.80;;;921.90;1638.40;;;;;;6246397;23;20012;-83
2022/07/28 15:51:07;;;;;;;10.68;6.30;;;921.70;1638.40;;;;;;6246088;23;20004;-83
2022/07/28 15:53:35;;;;;;;10.35;6.90;;;896.90;1638.40;;;;;;6245881;23;20023;-80
2022/07/28 15:56:02;;;;;;;8.82;6.93;;;896.90;1638.40;;;;;;6245601;23;20007;-82
2022/07/28 15:58:29;;;;;;;11.18;6.97;;;896.90;1638.40;;;;;;6245087;23;20011;-81
2022/07/28 16:00:55;;;;;;;8.05;5.88;;;896.60;1664.00;;;;;;6245589;23;20019;-82
2022/07/28 16:03:21;;;;;;;7.25;6.35;;;896.50;1664.00;;;;;;6246039;23;20077;-81
2022/07/28 16:05:50;;;;;;;8.52;6.40;;;896.30;1664.00;;;;;;6247597;22;20041;-83
2022/07/28 16:08:18;;;;;;;16.00;13.55;;;871.30;1689.60;;;;;;6245879;23;20012;-81